Time;durP1;ratioP1;P1;durP2;ratioP2;P2;SDS_P1;SDS_P2;PMS_P1;PMS_P2;Temp;Humidity;BMP_temperature;BMP_pressure;BME280_temperature;BME280_humidity;BME280_pressure;Samples;Min_cycle;Max_cycle;Signal;HPM_P1;HPM_P2
2022/01/02 00:01:35;;;;;;;16.37;12.10;;;;;;;11.29;64.63;95856.63;5010200;28;20527;-65
2022/01/02 00:04:03;;;;;;;16.63;12.63;;;;;;;11.50;63.75;95860.38;5008669;28;20539;-68
2022/01/02 00:06:33;;;;;;;18.13;12.63;;;;;;;11.40;63.60;95868.09;5009461;28;20448;-66
2022/01/02 00:09:06;;;;;;;17.07;13.00;;;;;;;11.49;63.90;95877.19;5009604;28;20491;-68
2022/01/02 00:11:37;;;;;;;15.97;12.43;;;;;;;11.24;64.21;95875.69;5009701;28;20483;-65
2022/01/02 00:14:07;;;;;;;15.63;12.13;;;;;;;11.11;64.80;95881.22;5010276;28;20487;-66
2022/01/02 00:16:38;;;;;;;17.07;12.23;;;;;;;11.66;63.71;95872.78;5010216;28;20518;-66
2022/01/02 00:19:16;;;;;;;15.77;12.07;;;;;;;11.42;63.46;95853.72;5009898;28;20441;-66
2022/01/02 00:21:46;;;;;;;15.60;12.43;;;;;;;11.56;63.33;95880.44;5010222;28;20901;-66
2022/01/02 00:24:18;;;;;;;16.77;12.93;;;;;;;11.76;62.87;95883.44;5010466;28;20450;-66
2022/01/02 00:26:48;;;;;;;14.93;12.10;;;;;;;11.88;62.63;95876.25;5010398;28;20973;-68
2022/01/02 00:29:15;;;;;;;16.33;12.33;;;;;;;11.91;62.39;95875.81;5009691;28;20484;-66
2022/01/02 00:31:43;;;;;;;15.50;12.23;;;;;;;11.78;62.78;95876.13;5010260;28;20436;-66
2022/01/02 00:34:10;;;;;;;15.90;12.27;;;;;;;11.52;63.27;95876.69;5017327;28;20458;-67
2022/01/02 00:36:38;;;;;;;14.43;10.87;;;;;;;11.59;62.92;95874.69;5014680;28;20448;-69
2022/01/02 00:39:07;;;;;;;14.50;11.53;;;;;;;11.46;63.79;95867.94;5009260;28;20444;-70
2022/01/02 00:41:54;;;;;;;15.67;11.97;;;;;;;11.64;62.97;95872.19;5009996;28;20447;-68
2022/01/02 00:44:50;;;;;;;15.37;12.17;;;;;;;11.48;63.37;95865.88;5009474;28;20445;-66
2022/01/02 00:47:31;;;;;;;14.60;12.03;;;;;;;11.82;63.18;95874.59;5009653;28;20473;-67
2022/01/02 00:50:03;;;;;;;15.87;11.50;;;;;;;11.61;63.14;95876.06;5009717;28;20487;-69
2022/01/02 00:52:35;;;;;;;17.33;13.00;;;;;;;11.78;63.22;95881.38;5008980;28;20944;-71
2022/01/02 00:55:07;;;;;;;16.80;12.00;;;;;;;11.78;62.95;95869.03;5009813;28;21039;-67
2022/01/02 00:57:39;;;;;;;14.53;11.70;;;;;;;11.69;63.04;95867.03;5008229;28;20440;-65
2022/01/02 01:00:07;;;;;;;14.10;11.63;;;;;;;11.62;63.60;95879.50;5009849;28;20928;-68
2022/01/02 01:02:39;;;;;;;15.33;11.87;;;;;;;11.40;64.10;95875.97;5008024;28;20452;-66
2022/01/02 01:05:08;;;;;;;14.67;11.80;;;;;;;11.41;64.25;95880.16;5045379;28;20532;-66
2022/01/02 01:07:37;;;;;;;16.47;12.47;;;;;;;11.48;64.16;95875.59;5017912;28;20494;-67
2022/01/02 01:10:08;;;;;;;15.37;11.33;;;;;;;11.64;63.20;95880.06;5012881;28;20480;-69
2022/01/02 01:12:35;;;;;;;15.77;12.03;;;;;;;11.81;63.29;95880.88;5013370;28;20527;-65
2022/01/02 01:15:05;;;;;;;16.47;11.73;;;;;;;11.92;62.58;95882.63;5012526;28;21059;-70
2022/01/02 01:17:32;;;;;;;14.43;11.97;;;;;;;11.90;62.12;95887.31;5011940;28;20460;-68
2022/01/02 01:19:59;;;;;;;14.10;11.10;;;;;;;12.18;61.40;95877.53;5017399;28;20443;-66
2022/01/02 01:22:26;;;;;;;13.83;11.17;;;;;;;11.75;61.98;95871.34;5021235;28;20856;-66
2022/01/02 01:24:54;;;;;;;13.43;10.67;;;;;;;11.99;61.32;95851.75;5028251;28;20448;-67
2022/01/02 01:27:21;;;;;;;14.10;11.07;;;;;;;12.26;61.01;95868.44;5012981;28;20456;-70
2022/01/02 01:29:48;;;;;;;13.80;11.40;;;;;;;12.28;60.90;95855.06;5044516;28;20503;-70
2022/01/02 01:32:15;;;;;;;12.60;10.93;;;;;;;12.41;60.55;95871.25;5012014;28;20452;-67
2022/01/02 01:34:42;;;;;;;12.97;10.80;;;;;;;12.72;59.09;95873.25;5015352;28;20479;-67
2022/01/02 01:37:11;;;;;;;13.53;11.17;;;;;;;12.47;59.98;95870.31;5023743;28;20575;-70
2022/01/02 01:39:40;;;;;;;13.77;10.67;;;;;;;12.46;60.24;95867.91;5010948;28;20907;-66
2022/01/02 01:42:10;;;;;;;13.37;10.10;;;;;;;12.08;60.51;95876.56;5012910;28;20495;-67
2022/01/02 01:44:51;;;;;;;12.60;10.13;;;;;;;12.08;60.95;95863.44;5044414;28;20540;-67
2022/01/02 01:47:19;;;;;;;13.40;10.60;;;;;;;12.29;60.41;95873.22;5011826;28;20994;-69
2022/01/02 01:49:46;;;;;;;11.37;9.57;;;;;;;12.14;60.45;95875.63;5012682;28;20484;-66
2022/01/02 01:52:15;;;;;;;11.57;10.23;;;;;;;12.01;61.04;95882.00;5011348;28;20440;-65
2022/01/02 01:54:42;;;;;;;12.27;10.23;;;;;;;12.12;60.82;95873.22;5012318;28;20451;-70
2022/01/02 01:57:09;;;;;;;12.00;10.10;;;;;;;11.99;60.62;95873.56;5043000;28;20443;-70
2022/01/02 01:59:37;;;;;;;11.77;10.20;;;;;;;12.19;60.51;95876.47;5042464;28;20445;-66
2022/01/02 02:02:04;;;;;;;11.33;10.00;;;;;;;12.10;60.50;95885.00;5012905;28;20449;-67
2022/01/02 02:04:32;;;;;;;12.80;10.33;;;;;;;11.97;60.69;95883.50;5041144;28;20518;-67
2022/01/02 02:07:00;;;;;;;12.83;10.40;;;;;;;12.19;60.08;95873.84;5027333;28;20450;-69
2022/01/02 02:09:34;;;;;;;11.50;10.03;;;;;;;12.12;60.29;95877.69;5010160;28;20526;-68
2022/01/02 02:12:01;;;;;;;12.77;10.27;;;;;;;12.41;59.74;95866.00;5044145;28;20448;-67
2022/01/02 02:14:36;;;;;;;12.67;10.17;;;;;;;12.56;59.23;95860.16;5010406;28;20440;-68
2022/01/02 02:17:03;;;;;;;11.50;9.93;;;;;;;12.15;59.74;95869.34;5044113;28;20487;-71
2022/01/02 02:19:30;;;;;;;12.17;10.50;;;;;;;11.99;60.57;95872.75;5025250;28;20457;-65
2022/01/02 02:22:00;;;;;;;11.63;9.60;;;;;;;12.09;60.16;95863.22;5025390;28;20511;-63
2022/01/02 02:24:27;;;;;;;13.70;10.50;;;;;;;12.20;60.37;95874.66;5010332;28;20455;-68
2022/01/02 02:26:54;;;;;;;12.27;10.10;;;;;;;11.95;60.44;95871.66;5011072;28;20453;-67
2022/01/02 02:29:21;;;;;;;12.83;10.03;;;;;;;11.78;61.17;95870.84;5011514;28;20476;-66
2022/01/02 02:31:50;;;;;;;11.20;9.73;;;;;;;12.04;60.89;95872.84;5012448;28;20445;-66
2022/01/02 02:34:17;;;;;;;12.43;10.27;;;;;;;12.09;60.58;95875.53;5011206;28;21429;-65
2022/01/02 02:36:44;;;;;;;12.17;9.97;;;;;;;11.95;60.85;95876.91;5006405;28;20820;-63
2022/01/02 02:39:11;;;;;;;13.07;10.17;;;;;;;11.99;60.57;95878.00;5011124;28;20440;-63
2022/01/02 02:41:41;;;;;;;14.57;10.27;;;;;;;12.09;60.66;95872.91;5010096;28;20457;-68
2022/01/02 02:44:19;;;;;;;12.40;10.27;;;;;;;12.03;60.72;95876.50;5010000;28;20457;-66
2022/01/02 02:49:38;;;;;;;12.87;9.93;;;;;;;12.12;60.60;95875.06;5026587;28;20506;-66
2022/01/02 02:52:13;;;;;;;11.73;10.17;;;;;;;11.84;60.90;95854.16;5010351;28;20975;-68
2022/01/02 02:54:42;;;;;;;12.37;10.53;;;;;;;12.01;61.47;95873.31;5010131;28;20548;-69
2022/01/02 02:57:13;;;;;;;12.37;9.93;;;;;;;11.87;61.03;95879.94;5010645;28;20437;-67
2022/01/02 02:59:41;;;;;;;11.27;9.77;;;;;;;12.36;60.58;95878.28;5026186;28;20436;-65
2022/01/02 03:02:09;;;;;;;11.80;9.97;;;;;;;12.26;60.25;95889.47;5041158;28;20994;-67
2022/01/02 03:04:41;;;;;;;13.10;10.53;;;;;;;12.38;59.84;95887.53;5009649;28;20983;-65
2022/01/02 03:07:08;;;;;;;11.57;10.27;;;;;;;12.21;60.02;95863.09;5010737;28;20983;-67
2022/01/02 03:09:39;;;;;;;16.67;11.40;;;;;;;12.50;59.81;95888.22;5036004;28;20960;-64
2022/01/02 03:12:13;;;;;;;12.93;10.90;;;;;;;12.28;60.16;95887.38;5013148;28;20748;-68
2022/01/02 03:14:47;;;;;;;12.87;10.60;;;;;;;12.43;60.19;95884.97;5009418;28;21033;-70
2022/01/02 03:17:16;;;;;;;12.27;10.83;;;;;;;12.15;60.46;95888.50;5009787;28;20441;-65
2022/01/02 03:19:43;;;;;;;12.93;10.40;;;;;;;12.50;60.08;95901.34;5025958;28;20448;-67
2022/01/02 03:22:13;;;;;;;14.77;11.53;;;;;;;12.21;60.79;95892.00;5025008;28;20924;-68
2022/01/02 03:24:40;;;;;;;14.00;10.90;;;;;;;12.40;60.92;95890.72;5008190;28;20448;-64
2022/01/02 03:27:08;;;;;;;13.67;11.37;;;;;;;12.30;60.87;95897.66;5009706;28;20544;-70
2022/01/02 03:29:35;;;;;;;14.73;10.17;;;;;;;12.20;60.47;95890.44;5009225;28;20524;-67
2022/01/02 03:32:02;;;;;;;14.30;11.13;;;;;;;11.71;61.97;95888.59;5008614;28;20987;-66
2022/01/02 03:34:29;;;;;;;14.00;10.60;;;;;;;11.69;62.08;95903.81;5016026;28;20451;-63
2022/01/02 03:36:56;;;;;;;11.17;9.73;;;;;;;11.85;61.44;95889.88;5034552;28;20483;-64
2022/01/02 03:39:23;;;;;;;11.87;10.07;;;;;;;11.71;61.80;95888.59;5008440;28;20448;-67
2022/01/02 03:41:50;;;;;;;11.80;9.80;;;;;;;12.09;60.54;95894.75;5009272;28;20451;-67
2022/01/02 03:44:18;;;;;;;11.70;9.60;;;;;;;11.60;61.53;95894.69;5025482;28;20445;-64
2022/01/02 03:46:45;;;;;;;12.57;9.97;;;;;;;11.77;61.39;95896.31;5042340;28;20507;-64
2022/01/02 03:49:13;;;;;;;12.93;10.03;;;;;;;12.09;61.07;95893.94;5041738;28;20503;-65
2022/01/02 03:51:40;;;;;;;13.63;10.27;;;;;;;12.15;60.59;95887.72;5009568;28;20460;-68
2022/01/02 03:54:08;;;;;;;12.20;9.97;;;;;;;12.03;60.61;95879.94;5008913;28;20437;-70
2022/01/02 03:56:35;;;;;;;10.87;9.47;;;;;;;12.26;60.46;95883.41;5009422;28;20433;-68
2022/01/02 03:59:02;;;;;;;12.93;10.00;;;;;;;11.90;60.94;95879.44;5008882;28;20464;-68
2022/01/02 04:01:29;;;;;;;13.50;10.83;;;;;;;12.36;59.76;95879.09;5008583;28;20452;-69
2022/01/02 04:03:56;;;;;;;10.93;9.33;;;;;;;11.89;61.35;95894.44;5010431;28;20525;-68
2022/01/02 04:06:23;;;;;;;11.30;9.97;;;;;;;11.97;60.61;95890.63;5042077;28;20452;-66
2022/01/02 04:08:50;;;;;;;11.87;9.53;;;;;;;12.13;60.06;95887.94;5007524;28;20545;-65
2022/01/02 04:11:17;;;;;;;12.73;9.77;;;;;;;12.12;60.12;95898.69;5024590;28;21027;-67
2022/01/02 04:13:44;;;;;;;12.63;9.57;;;;;;;12.07;60.50;95901.25;5025131;28;20507;-68
2022/01/02 04:16:11;;;;;;;14.50;9.57;;;;;;;12.13;59.99;95910.81;5010009;28;20967;-70
2022/01/02 04:18:38;;;;;;;10.47;9.10;;;;;;;12.10;60.56;95906.81;5008792;28;21041;-65
2022/01/02 04:21:05;;;;;;;12.03;9.53;;;;;;;12.03;60.40;95913.28;5041551;28;20552;-68
2022/01/02 04:23:32;;;;;;;10.90;9.43;;;;;;;11.93;60.72;95921.78;5042649;28;20948;-69
2022/01/02 04:25:59;;;;;;;11.90;9.27;;;;;;;12.07;60.81;95927.53;5009320;28;20451;-69
2022/01/02 04:28:26;;;;;;;10.97;9.73;;;;;;;12.07;60.80;95922.28;5041786;28;20441;-67
2022/01/02 04:30:52;;;;;;;13.00;9.57;;;;;;;12.19;60.67;95926.41;5008001;28;20484;-66
2022/01/02 04:33:20;;;;;;;12.23;10.23;;;;;;;11.98;60.92;95929.75;5008188;28;20871;-65
2022/01/02 04:35:47;;;;;;;12.10;9.77;;;;;;;11.81;61.52;95928.16;5040276;28;20448;-68
2022/01/02 04:38:14;;;;;;;12.33;10.43;;;;;;;12.19;61.04;95926.41;4993960;28;20548;-62
2022/01/02 04:40:44;;;;;;;12.13;10.10;;;;;;;11.87;61.27;95909.63;5024760;28;20445;-68
2022/01/02 04:43:11;;;;;;;13.60;9.97;;;;;;;12.02;61.51;95919.56;5009656;28;20997;-69
2022/01/02 04:45:39;;;;;;;12.50;10.57;;;;;;;11.78;61.79;95918.13;5008824;28;20908;-64
2022/01/02 04:48:06;;;;;;;11.40;10.20;;;;;;;12.02;61.53;95924.84;5024167;28;20481;-65
2022/01/02 04:50:33;;;;;;;14.90;10.47;;;;;;;12.18;60.88;95926.66;5006710;28;20558;-66
2022/01/02 04:53:01;;;;;;;11.20;9.43;;;;;;;12.09;61.12;95930.72;5008464;28;20455;-69
2022/01/02 04:55:28;;;;;;;14.10;10.67;;;;;;;11.90;61.57;95921.47;5008351;28;20441;-65
2022/01/02 04:57:56;;;;;;;14.27;10.20;;;;;;;11.91;61.71;95934.38;5024283;28;20535;-68
2022/01/02 05:00:23;;;;;;;11.20;9.87;;;;;;;11.99;61.39;95925.28;5009778;28;20494;-66
2022/01/02 05:02:52;;;;;;;13.03;10.10;;;;;;;12.06;61.06;95936.47;5009810;28;20472;-68
2022/01/02 05:05:20;;;;;;;13.80;10.40;;;;;;;11.95;61.29;95935.47;5009140;28;20448;-65
2022/01/02 05:07:47;;;;;;;11.93;10.30;;;;;;;11.70;61.97;95935.06;5023147;28;20449;-68
2022/01/02 05:10:14;;;;;;;11.23;10.03;;;;;;;11.78;61.96;95934.69;5039650;28;20480;-68
2022/01/02 05:12:42;;;;;;;13.90;10.63;;;;;;;12.05;60.82;95932.22;5007621;28;20908;-66
2022/01/02 05:15:10;;;;;;;12.40;9.83;;;;;;;12.07;60.99;95927.53;5008084;28;20528;-70
2022/01/02 05:17:37;;;;;;;14.00;10.97;;;;;;;12.02;61.42;95930.09;5040893;28;20453;-68
2022/01/02 05:20:05;;;;;;;14.27;10.83;;;;;;;11.94;60.88;95939.16;5008213;28;20464;-67
2022/01/02 05:22:35;;;;;;;13.73;10.50;;;;;;;12.14;60.90;95933.41;5023207;28;20463;-63
2022/01/02 05:25:03;;;;;;;12.93;10.43;;;;;;;12.07;61.00;95945.91;5006069;28;20449;-68
2022/01/02 05:27:30;;;;;;;12.43;10.37;;;;;;;12.15;60.65;95938.44;5009313;28;20521;-67
2022/01/02 05:29:58;;;;;;;11.83;10.00;;;;;;;11.89;61.41;95941.69;5007783;28;20867;-69
2022/01/02 05:32:25;;;;;;;14.17;10.40;;;;;;;12.15;60.84;95940.28;5007583;28;20445;-66
2022/01/02 05:34:52;;;;;;;12.90;10.67;;;;;;;11.78;61.68;95939.94;5009219;28;20502;-68
2022/01/02 05:37:21;;;;;;;13.13;10.70;;;;;;;11.83;61.54;95942.66;5040656;28;20484;-69
2022/01/02 05:39:49;;;;;;;12.97;10.10;;;;;;;11.82;61.88;95948.13;5005298;28;20874;-68
2022/01/02 05:42:16;;;;;;;12.87;10.40;;;;;;;11.91;61.51;95946.72;5008926;28;20505;-68
2022/01/02 05:44:43;;;;;;;11.10;9.47;;;;;;;11.96;61.10;95941.53;5008040;28;20436;-73
2022/01/02 05:47:11;;;;;;;12.90;10.63;;;;;;;11.83;61.13;95933.97;5024331;28;20491;-64
2022/01/02 05:49:39;;;;;;;12.60;9.93;;;;;;;11.97;60.87;95943.16;5007967;28;20498;-69
2022/01/02 05:52:07;;;;;;;14.53;10.67;;;;;;;12.21;60.01;95949.81;5008033;28;20599;-65
2022/01/02 05:54:33;;;;;;;12.47;9.87;;;;;;;12.35;59.83;95955.56;5041602;28;20460;-68
2022/01/02 05:57:00;;;;;;;12.43;10.53;;;;;;;12.19;60.09;95944.00;5013055;28;20823;-68
2022/01/02 05:59:28;;;;;;;12.17;9.27;;;;;;;12.16;60.35;95950.53;5011205;28;20437;-70
2022/01/02 06:01:55;;;;;;;12.63;10.03;;;;;;;11.91;61.18;95951.97;5013015;28;20445;-69
2022/01/02 06:04:23;;;;;;;12.10;10.27;;;;;;;12.21;60.16;95940.09;5044204;28;20514;-66
2022/01/02 06:06:50;;;;;;;11.60;9.37;;;;;;;12.36;60.57;95957.94;5012558;28;20444;-73
2022/01/02 06:09:19;;;;;;;10.97;9.40;;;;;;;12.15;60.38;95956.03;5025159;28;20971;-68
2022/01/02 06:11:46;;;;;;;12.37;9.47;;;;;;;12.25;60.29;95961.44;5012132;28;20590;-66
2022/01/02 06:14:13;;;;;;;12.77;10.13;;;;;;;12.27;60.38;95954.13;5027011;28;20551;-70
2022/01/02 06:16:40;;;;;;;13.60;10.27;;;;;;;12.12;60.86;95954.69;5011028;28;20483;-66
2022/01/02 06:19:07;;;;;;;11.93;9.90;;;;;;;12.31;59.94;95965.75;5011434;28;20472;-67
2022/01/02 06:21:35;;;;;;;11.63;8.97;;;;;;;12.42;59.95;95962.25;5012785;28;20445;-67
2022/01/02 06:24:02;;;;;;;11.93;9.73;;;;;;;12.58;59.27;95961.41;5010377;28;21168;-68
2022/01/02 06:26:29;;;;;;;12.60;9.47;;;;;;;12.76;58.36;95963.78;5010826;28;20488;-67
2022/01/02 06:28:56;;;;;;;13.20;8.90;;;;;;;12.55;58.92;95977.69;5044229;28;20627;-70
2022/01/02 06:31:23;;;;;;;10.07;8.90;;;;;;;12.33;59.62;95974.19;5011246;28;20476;-65
2022/01/02 06:33:51;;;;;;;12.60;9.10;;;;;;;12.88;58.67;95980.22;5012829;28;20505;-68
2022/01/02 06:36:18;;;;;;;11.30;8.93;;;;;;;12.94;58.11;95976.63;5012525;28;20529;-70
2022/01/02 06:38:45;;;;;;;10.80;8.57;;;;;;;13.08;57.79;95974.50;5040356;28;20448;-70
2022/01/02 06:41:12;;;;;;;11.00;8.67;;;;;;;13.28;57.36;95976.56;5009784;28;20636;-69
2022/01/02 06:43:40;;;;;;;10.00;8.50;;;;;;;12.95;57.74;95975.63;5042795;28;20527;-68
2022/01/02 06:46:08;;;;;;;10.23;8.30;;;;;;;13.10;57.31;95981.09;5027084;28;20449;-65
2022/01/02 06:48:36;;;;;;;10.70;9.23;;;;;;;13.12;57.65;95973.75;5010036;28;20563;-70
2022/01/02 06:51:03;;;;;;;10.57;8.60;;;;;;;12.88;57.68;95988.13;5010005;28;20487;-70
2022/01/02 06:53:30;;;;;;;10.70;8.57;;;;;;;12.95;57.69;95983.50;5011409;28;20445;-66
2022/01/02 06:55:57;;;;;;;11.87;9.00;;;;;;;13.12;57.17;95989.53;5010478;28;20997;-67
2022/01/02 06:58:24;;;;;;;12.50;9.00;;;;;;;12.85;57.46;95988.63;5011372;28;20936;-70
2022/01/02 07:00:51;;;;;;;11.73;8.93;;;;;;;12.58;58.28;95987.72;5026492;28;20520;-69
2022/01/02 07:03:20;;;;;;;10.83;8.67;;;;;;;12.58;58.29;95997.44;5042705;28;21371;-67
2022/01/02 07:05:48;;;;;;;11.47;8.20;;;;;;;12.04;59.93;95993.69;5043608;28;20459;-67
2022/01/02 07:08:15;;;;;;;11.70;8.90;;;;;;;12.24;59.85;96000.06;5010820;28;20491;-68
2022/01/02 07:10:42;;;;;;;10.00;8.47;;;;;;;12.00;59.61;96008.34;5008029;28;20476;-66
2022/01/02 07:13:09;;;;;;;10.43;8.73;;;;;;;12.37;59.15;96006.81;5009486;28;20449;-67
2022/01/02 07:15:36;;;;;;;9.67;8.30;;;;;;;12.50;59.29;96003.88;5009224;28;21002;-64
2022/01/02 07:18:03;;;;;;;9.87;8.07;;;;;;;12.41;59.08;96018.47;5011825;28;20466;-68
2022/01/02 07:20:30;;;;;;;11.47;8.20;;;;;;;12.75;58.72;96017.44;5009267;28;20448;-66
2022/01/02 07:22:57;;;;;;;11.63;8.43;;;;;;;12.33;59.51;96018.88;5009752;28;21003;-67
2022/01/02 07:25:24;;;;;;;9.30;8.30;;;;;;;12.46;59.05;96005.41;5007424;28;20480;-65
2022/01/02 07:27:51;;;;;;;17.87;8.93;;;;;;;12.84;61.45;96023.88;5008743;28;20445;-67
2022/01/02 07:30:17;;;;;;;104.97;85.00;;;;;;;12.67;59.63;96022.28;5011436;28;20535;-65
2022/01/02 07:32:46;;;;;;;39.50;30.73;;;;;;;12.76;58.80;96021.63;5008490;28;20524;-64
2022/01/02 07:35:13;;;;;;;17.00;10.37;;;;;;;12.58;59.10;96029.78;5009506;28;20449;-62
2022/01/02 07:37:40;;;;;;;9.67;8.00;;;;;;;12.47;59.41;96012.25;5029978;28;20528;-68
2022/01/02 07:40:08;;;;;;;10.50;8.40;;;;;;;12.88;58.74;96024.94;5025412;28;20440;-67
2022/01/02 07:42:35;;;;;;;9.87;7.77;;;;;;;12.80;58.57;96037.72;5029216;28;20963;-67
2022/01/02 07:45:13;;;;;;;10.27;9.00;;;;;;;13.29;57.35;96028.16;5028645;28;20439;-66
2022/01/02 07:47:40;;;;;;;10.50;8.73;;;;;;;13.03;57.28;96012.03;5009064;28;20534;-67
2022/01/02 07:50:07;;;;;;;18.03;12.90;;;;;;;13.00;56.95;96012.50;5010736;28;20455;-64
2022/01/02 07:52:34;;;;;;;14.30;11.83;;;;;;;13.17;56.85;96017.75;5008494;28;20489;-66
2022/01/02 07:55:01;;;;;;;10.03;7.97;;;;;;;13.00;57.64;96017.78;5011711;28;20444;-68
2022/01/02 07:57:28;;;;;;;10.33;7.07;;;;;;;12.96;57.34;96021.91;5014276;28;20440;-67
2022/01/02 07:59:55;;;;;;;10.20;7.87;;;;;;;12.84;57.53;96002.81;5021763;28;20955;-66
2022/01/02 08:02:39;;;;;;;65.63;40.67;;;;;;;13.26;56.74;96013.66;5014602;28;20930;-67
2022/01/02 08:05:07;;;;;;;87.73;68.23;;;;;;;12.96;57.05;96016.66;5014527;28;20451;-65
2022/01/02 08:07:40;;;;;;;8.90;8.00;;;;;;;13.41;56.41;96018.31;4997783;28;20440;-66
2022/01/02 08:10:08;;;;;;;11.40;7.00;;;;;;;12.80;56.32;96022.75;5029519;28;20972;-66
2022/01/02 08:12:35;;;;;;;8.30;7.23;;;;;;;13.09;56.09;96016.34;5029376;28;20475;-66
2022/01/02 08:15:03;;;;;;;10.67;7.50;;;;;;;13.47;55.15;96012.06;5021788;28;20448;-65
2022/01/02 08:17:30;;;;;;;9.03;6.33;;;;;;;13.11;55.72;96014.28;5015807;28;20448;-70
2022/01/02 08:19:57;;;;;;;8.20;6.83;;;;;;;13.42;54.76;96015.44;5011256;28;20811;-68
2022/01/02 08:22:24;;;;;;;8.73;6.87;;;;;;;13.86;53.83;96027.53;5012724;28;20463;-70
2022/01/02 08:24:51;;;;;;;8.50;6.90;;;;;;;13.77;54.32;96022.94;5018860;28;20444;-63
2022/01/02 08:27:18;;;;;;;8.00;6.50;;;;;;;13.66;54.44;96013.34;5019654;28;20449;-65
2022/01/02 08:29:45;;;;;;;9.97;6.83;;;;;;;14.17;54.22;96013.59;5019995;28;20440;-74
2022/01/02 08:32:12;;;;;;;8.50;6.90;;;;;;;14.24;52.77;96008.09;5012703;28;20496;-67
2022/01/02 08:34:39;;;;;;;8.90;6.83;;;;;;;13.91;54.96;96013.59;5014215;28;20510;-68
2022/01/02 08:37:06;;;;;;;8.13;6.37;;;;;;;13.88;53.46;96014.91;5025341;28;20440;-68
2022/01/02 08:39:33;;;;;;;8.13;6.70;;;;;;;14.03;53.52;96016.88;5009058;28;20445;-68
2022/01/02 08:42:00;;;;;;;8.03;5.87;;;;;;;13.99;53.33;95992.06;5009975;28;20463;-69
2022/01/02 08:44:27;;;;;;;7.07;5.90;;;;;;;14.56;51.95;96011.56;5009428;28;20822;-66
2022/01/02 08:46:54;;;;;;;11.30;6.23;;;;;;;14.61;51.64;96010.81;5007709;28;21001;-68
2022/01/02 08:49:22;;;;;;;7.40;6.13;;;;;;;15.35;50.00;96012.28;5007610;28;20448;-72
2022/01/02 08:51:50;;;;;;;7.63;5.70;;;;;;;15.05;49.81;95998.97;5007417;28;20901;-71
2022/01/02 08:54:17;;;;;;;7.97;6.63;;;;;;;15.59;48.56;96008.19;5009271;28;20556;-70
2022/01/02 08:56:44;;;;;;;7.40;6.07;;;;;;;15.84;48.37;96002.16;5010040;28;20891;-70
2022/01/02 08:59:11;;;;;;;9.03;5.23;;;;;;;15.83;47.65;96006.69;5009953;28;20440;-68
2022/01/02 09:01:38;;;;;;;7.80;6.07;;;;;;;15.23;48.86;96004.59;5010212;28;20448;-67
2022/01/02 09:04:05;;;;;;;8.37;5.60;;;;;;;15.61;48.55;96002.66;5010182;28;20494;-66
2022/01/02 09:06:32;;;;;;;8.97;6.07;;;;;;;15.09;48.94;96000.81;5009925;28;20527;-65
2022/01/02 09:08:59;;;;;;;8.33;5.47;;;;;;;15.95;47.11;95995.84;5009234;28;20441;-66
2022/01/02 09:11:26;;;;;;;7.47;5.40;;;;;;;16.12;47.19;95999.88;5009652;28;20519;-69
2022/01/02 09:13:53;;;;;;;7.07;5.93;;;;;;;15.92;46.87;95994.53;5009573;28;20433;-67
2022/01/02 09:16:20;;;;;;;7.57;5.70;;;;;;;16.18;47.22;95987.44;5009892;28;20437;-68
2022/01/02 09:18:47;;;;;;;6.57;5.63;;;;;;;16.25;46.45;95998.56;5009406;28;20444;-68
2022/01/02 09:21:14;;;;;;;6.20;5.17;;;;;;;16.06;46.27;95994.81;5009960;28;20846;-68
2022/01/02 09:23:41;;;;;;;6.27;5.53;;;;;;;16.43;45.66;95984.00;5009449;28;20433;-67
2022/01/02 09:26:09;;;;;;;6.37;5.40;;;;;;;16.71;45.49;95986.94;5009459;28;21334;-66
2022/01/02 09:28:36;;;;;;;7.20;5.40;;;;;;;16.79;44.63;95986.38;5009302;28;20819;-68
2022/01/02 09:31:03;;;;;;;6.07;5.47;;;;;;;17.48;43.53;95964.50;5012456;28;21038;-68
2022/01/02 09:33:31;;;;;;;6.73;5.03;;;;;;;17.99;41.76;95960.47;5012918;28;20494;-70
2022/01/02 09:35:57;;;;;;;7.97;5.47;;;;;;;17.77;42.44;95955.56;5013780;28;20975;-70
2022/01/02 09:38:25;;;;;;;6.10;4.90;;;;;;;17.40;42.37;95967.66;5012899;28;20939;-68
2022/01/02 09:40:52;;;;;;;6.33;5.60;;;;;;;17.80;42.41;95951.56;5013053;28;20476;-66
2022/01/02 09:43:21;;;;;;;6.90;5.50;;;;;;;17.26;42.94;95950.78;5012482;28;20540;-69
2022/01/02 09:45:49;;;;;;;6.67;5.27;;;;;;;15.90;45.84;95957.00;5012989;28;20444;-66
2022/01/02 09:48:16;;;;;;;6.67;5.57;;;;;;;15.29;46.77;95946.53;5012416;28;20475;-71
2022/01/02 09:50:47;;;;;;;9.50;5.63;;;;;;;16.39;45.91;95949.34;5013309;28;20452;-69
2022/01/02 09:53:14;;;;;;;7.03;5.17;;;;;;;16.93;43.64;95931.81;5012301;28;20444;-67
2022/01/02 09:55:41;;;;;;;6.53;5.03;;;;;;;16.73;43.65;95937.16;5013113;28;20437;-67
2022/01/02 09:58:12;;;;;;;7.43;4.80;;;;;;;16.85;43.84;95935.00;5012722;28;20453;-70
2022/01/02 10:00:46;;;;;;;5.80;5.13;;;;;;;16.52;44.01;95914.44;5012688;28;20476;-69
2022/01/02 10:03:14;;;;;;;6.70;4.73;;;;;;;17.74;42.62;95926.16;5012169;28;20452;-68
2022/01/02 10:05:54;;;;;;;7.13;6.07;;;;;;;17.91;42.00;95931.88;5012949;28;20448;-70
2022/01/02 10:08:29;;;;;;;8.10;5.67;;;;;;;18.14;41.10;95915.25;5012282;28;20467;-67
2022/01/02 10:11:15;;;;;;;9.67;6.10;;;;;;;18.48;40.84;95916.06;5012355;28;20966;-68
2022/01/02 10:13:47;;;;;;;7.13;5.43;;;;;;;18.90;40.61;95924.13;5011326;28;20984;-67
2022/01/02 10:16:26;;;;;;;8.47;5.70;;;;;;;19.28;40.35;95924.22;5012725;28;20822;-68
2022/01/02 10:18:55;;;;;;;7.70;5.87;;;;;;;18.91;40.07;95909.78;5012206;28;20440;-66
2022/01/02 10:21:35;;;;;;;5.20;4.70;;;;;;;18.81;39.91;95917.06;5012448;28;20455;-69
2022/01/02 10:24:22;;;;;;;5.90;5.00;;;;;;;18.78;39.61;95894.50;5011753;28;20448;-68
2022/01/02 10:27:19;;;;;;;6.53;4.50;;;;;;;18.31;40.23;95881.16;5012070;28;20453;-67
2022/01/02 10:29:54;;;;;;;5.27;4.67;;;;;;;18.95;39.72;95899.38;5015299;28;20452;-68
2022/01/02 10:32:33;;;;;;;5.50;4.30;;;;;;;18.07;39.66;95893.56;5012012;28;20478;-69
2022/01/02 10:35:12;;;;;;;5.77;4.60;;;;;;;17.89;40.99;95902.19;5011903;28;20508;-69
2022/01/02 10:37:42;;;;;;;4.77;4.27;;;;;;;17.72;40.33;95896.47;5011861;28;20440;-67
2022/01/02 10:40:38;;;;;;;5.63;3.90;;;;;;;17.53;40.97;95887.59;5011994;28;20447;-68
2022/01/02 10:43:08;;;;;;;3.57;3.27;;;;;;;18.01;39.87;95873.47;5011385;28;20802;-69
2022/01/02 10:45:38;;;;;;;4.13;3.73;;;;;;;18.06;40.10;95881.38;5042834;28;20445;-69
2022/01/02 10:48:10;;;;;;;4.10;3.70;;;;;;;17.95;40.59;95874.59;5011319;28;20476;-68
2022/01/02 10:50:39;;;;;;;4.40;3.63;;;;;;;17.20;41.04;95881.94;5011870;28;20453;-67
2022/01/02 10:53:24;;;;;;;5.00;3.63;;;;;;;17.52;40.46;95867.44;5011064;28;20469;-68
2022/01/02 10:55:52;;;;;;;4.73;3.47;;;;;;;17.69;40.39;95867.88;5011618;28;20454;-67
2022/01/02 10:58:20;;;;;;;4.83;3.30;;;;;;;18.44;39.63;95872.59;5011386;28;20567;-67
2022/01/02 11:00:48;;;;;;;4.20;3.40;;;;;;;17.32;40.91;95870.22;5011797;28;20514;-71
2022/01/02 11:03:16;;;;;;;4.47;4.07;;;;;;;18.14;40.42;95876.28;5011551;28;20527;-68
2022/01/02 11:05:47;;;;;;;5.47;3.57;;;;;;;18.09;40.27;95870.22;5011307;28;20533;-67
2022/01/02 11:08:15;;;;;;;5.77;4.20;;;;;;;17.78;40.13;95871.53;5011544;28;20573;-68
2022/01/02 11:10:42;;;;;;;5.60;2.90;;;;;;;18.24;39.92;95862.13;5011857;28;20425;-67
2022/01/02 11:13:09;;;;;;;4.90;3.30;;;;;;;17.76;40.08;95855.91;5010772;28;20504;-67
2022/01/02 11:15:36;;;;;;;4.93;4.07;;;;;;;16.92;42.37;95866.69;5011316;28;20972;-69
2022/01/02 11:18:04;;;;;;;3.93;3.37;;;;;;;16.78;41.60;95849.81;5011187;28;20451;-67
2022/01/02 11:20:34;;;;;;;5.03;3.17;;;;;;;17.82;41.26;95844.19;5011352;28;20433;-67
2022/01/02 11:23:33;;;;;;;8.33;3.50;;;;;;;18.09;40.81;95849.00;5010826;28;20430;-66
2022/01/02 11:26:12;;;;;;;6.20;3.63;;;;;;;17.97;40.48;95840.63;5011864;28;20907;-68
2022/01/02 11:28:49;;;;;;;4.03;3.17;;;;;;;17.21;41.15;95843.78;5010830;28;20445;-67
2022/01/02 11:31:30;;;;;;;4.40;3.47;;;;;;;17.33;41.00;95829.41;5010831;28;20456;-68
2022/01/02 11:33:58;;;;;;;4.27;3.30;;;;;;;17.38;41.07;95811.63;5010341;28;20455;-68
2022/01/02 11:36:31;;;;;;;6.10;4.00;;;;;;;17.74;41.34;95836.03;5011357;28;20451;-68